Time;durP1;ratioP1;P1;durP2;ratioP2;P2;SDS_P1;SDS_P2;PMS_P1;PMS_P2;Temp;Humidity;BMP_temperature;BMP_pressure;BME280_temperature;BME280_humidity;BME280_pressure;Samples;Min_cycle;Max_cycle;Signal;HPM_P1;HPM_P2
2023/10/31 00:01:13;;;;;;;15.40;7.73;;;;;;;14.26;71.91;97229.44;4971591;28;20682;-68
2023/10/31 00:03:42;;;;;;;12.33;7.57;;;;;;;14.24;72.79;97249.53;4990404;28;20199;-69
2023/10/31 00:06:10;;;;;;;9.87;6.97;;;;;;;14.11;72.74;97204.31;4972307;28;20206;-70
2023/10/31 00:08:37;;;;;;;14.27;8.20;;;;;;;14.44;72.32;97236.25;4972141;28;20459;-68
2023/10/31 00:11:04;;;;;;;9.17;7.30;;;;;;;14.38;71.54;97218.38;4990351;28;20274;-69
2023/10/31 00:13:32;;;;;;;12.57;7.83;;;;;;;13.81;74.36;97219.88;4971216;28;20241;-69
2023/10/31 00:15:59;;;;;;;13.03;8.57;;;;;;;13.79;74.14;97207.88;4990204;28;20254;-68
2023/10/31 00:18:27;;;;;;;13.03;8.57;;;;;;;13.18;75.84;97180.94;4987979;28;20198;-68
2023/10/31 00:20:54;;;;;;;14.00;8.70;;;;;;;13.33;76.84;97216.53;4972411;28;20198;-68
2023/10/31 00:23:22;;;;;;;8.50;7.30;;;;;;;13.39;76.56;97231.81;4955426;28;20200;-68
2023/10/31 00:25:49;;;;;;;13.30;8.90;;;;;;;13.17;78.07;97219.09;4989254;28;20190;-66
2023/10/31 00:28:16;;;;;;;12.87;7.43;;;;;;;12.90;78.41;97199.75;4972650;28;20189;-71
2023/10/31 00:30:44;;;;;;;14.07;7.83;;;;;;;13.09;78.71;97223.84;4988306;28;20202;-67
2023/10/31 00:33:11;;;;;;;13.07;8.37;;;;;;;13.12;79.30;97235.84;4990191;28;20573;-67
2023/10/31 00:35:38;;;;;;;12.03;8.00;;;;;;;13.34;77.99;97202.56;4988233;28;20283;-68
2023/10/31 00:38:05;;;;;;;10.87;7.70;;;;;;;13.33;78.97;97212.16;4989768;28;20300;-71
2023/10/31 00:40:32;;;;;;;13.83;8.10;;;;;;;13.37;78.99;97211.09;4971060;28;20198;-70
2023/10/31 00:43:00;;;;;;;11.07;8.07;;;;;;;13.23;79.03;97194.53;4972060;28;20190;-68
2023/10/31 00:45:30;;;;;;;11.73;6.97;;;;;;;13.18;78.91;97201.72;4972341;28;20734;-68
2023/10/31 00:48:00;;;;;;;13.53;8.00;;;;;;;12.93;80.65;97173.56;4988153;28;20188;-69
2023/10/31 00:50:28;;;;;;;10.97;7.27;;;;;;;13.30;80.01;97209.72;4989557;28;20194;-69
2023/10/31 00:52:55;;;;;;;13.67;7.40;;;;;;;13.06;80.08;97200.63;4987757;28;20258;-69
2023/10/31 00:55:23;;;;;;;13.47;7.53;;;;;;;13.16;79.77;97200.97;4955725;28;20333;-69
2023/10/31 00:57:50;;;;;;;13.40;7.83;;;;;;;13.06;79.98;97196.25;4970469;28;20257;-69
2023/10/31 01:00:17;;;;;;;11.83;7.90;;;;;;;12.67;81.42;97182.75;4971581;28;20599;-68
2023/10/31 01:02:45;;;;;;;10.03;7.87;;;;;;;12.58;82.01;97172.81;4988915;28;20308;-71
2023/10/31 01:05:12;;;;;;;14.83;8.27;;;;;;;12.84;81.05;97193.06;4987922;28;20196;-70
2023/10/31 01:07:39;;;;;;;15.73;8.27;;;;;;;12.72;81.44;97192.88;4971636;28;20272;-68
2023/10/31 01:10:07;;;;;;;14.73;9.10;;;;;;;12.56;82.64;97179.84;4969976;28;20213;-68
2023/10/31 01:12:34;;;;;;;13.53;8.57;;;;;;;12.64;82.51;97176.84;4971487;28;20210;-68
2023/10/31 01:15:03;;;;;;;12.87;8.23;;;;;;;12.27;83.51;97125.94;4970152;28;20217;-70
2023/10/31 01:17:31;;;;;;;13.83;10.00;;;;;;;12.70;82.04;97172.16;4988657;28;20586;-72
2023/10/31 01:19:59;;;;;;;15.40;7.87;;;;;;;12.81;82.65;97188.06;4971125;28;20252;-68
2023/10/31 01:22:30;;;;;;;11.20;9.13;;;;;;;12.91;82.08;97189.25;4970709;28;20278;-69
2023/10/31 01:24:57;;;;;;;12.07;8.67;;;;;;;12.87;81.68;97190.34;4939531;28;20709;-68
2023/10/31 01:27:24;;;;;;;12.77;9.30;;;;;;;12.72;81.70;97156.50;4969933;28;20716;-68
2023/10/31 01:29:51;;;;;;;16.00;9.90;;;;;;;12.85;81.64;97176.56;4971215;28;20203;-68
2023/10/31 01:32:19;;;;;;;17.27;9.40;;;;;;;12.98;80.78;97182.78;4986796;28;20298;-68
2023/10/31 01:34:50;;;;;;;12.20;8.77;;;;;;;12.94;81.00;97173.47;4971115;28;20221;-68
2023/10/31 01:37:20;;;;;;;14.33;8.83;;;;;;;13.27;79.82;97188.25;4954851;28;20698;-69
2023/10/31 01:39:48;;;;;;;11.83;8.73;;;;;;;13.41;79.14;97183.13;4987437;28;20706;-69
2023/10/31 01:42:16;;;;;;;14.37;8.63;;;;;;;13.25;78.59;97164.09;4971143;28;20550;-69
2023/10/31 01:44:43;;;;;;;13.27;8.57;;;;;;;13.48;77.26;97172.28;4953312;28;20202;-68
2023/10/31 01:47:11;;;;;;;16.63;9.40;;;;;;;13.41;77.58;97167.53;4970921;28;20687;-69
2023/10/31 01:49:39;;;;;;;10.97;7.73;;;;;;;13.58;76.31;97170.03;4953844;28;20195;-69
2023/10/31 01:52:07;;;;;;;12.40;8.10;;;;;;;13.35;76.09;97145.28;4988336;28;20253;-69
2023/10/31 01:54:35;;;;;;;12.27;7.43;;;;;;;13.47;74.92;97159.38;4954620;28;20229;-70
2023/10/31 01:57:04;;;;;;;13.43;8.00;;;;;;;13.64;75.22;97164.50;4969520;28;20231;-73
2023/10/31 01:59:32;;;;;;;10.83;7.23;;;;;;;13.67;74.55;97153.91;4988421;28;20385;-69
2023/10/31 02:02:00;;;;;;;12.63;8.37;;;;;;;13.80;74.28;97158.34;4953480;28;20193;-70
2023/10/31 02:04:30;;;;;;;12.63;7.90;;;;;;;13.84;74.13;97166.81;4970810;28;20254;-69
2023/10/31 02:06:58;;;;;;;13.53;8.00;;;;;;;13.58;74.14;97163.03;4969118;28;20240;-69
2023/10/31 02:09:29;;;;;;;12.67;7.67;;;;;;;13.48;76.25;97171.44;4970647;28;20926;-69
2023/10/31 02:11:57;;;;;;;10.47;7.10;;;;;;;13.51;75.83;97164.34;4987531;28;20231;-71
2023/10/31 02:14:24;;;;;;;12.90;7.27;;;;;;;13.40;75.80;97176.22;4969320;28;20229;-69
2023/10/31 02:16:52;;;;;;;12.33;7.80;;;;;;;13.27;76.29;97172.63;4970372;28;20235;-69
2023/10/31 02:19:20;;;;;;;14.10;8.13;;;;;;;13.16;76.29;97143.75;4986306;28;20199;-69
2023/10/31 02:21:48;;;;;;;12.83;7.10;;;;;;;13.23;77.07;97155.53;4987330;28;20269;-68
2023/10/31 02:24:16;;;;;;;10.70;6.97;;;;;;;12.90;78.26;97158.97;4968920;28;20228;-69
2023/10/31 02:26:44;;;;;;;11.43;7.57;;;;;;;12.89;78.57;97169.44;4987487;28;20224;-68
2023/10/31 02:29:12;;;;;;;9.37;6.73;;;;;;;12.67;79.76;97151.56;4986986;28;20228;-69
2023/10/31 02:31:39;;;;;;;12.60;6.80;;;;;;;12.71;80.46;97165.22;4953355;28;20202;-69
2023/10/31 02:34:07;;;;;;;12.73;7.00;;;;;;;12.77;80.60;97160.56;4987691;28;20216;-70
2023/10/31 02:36:34;;;;;;;12.07;7.67;;;;;;;12.52;81.29;97157.53;4968740;28;20190;-69
2023/10/31 02:39:02;;;;;;;12.30;8.30;;;;;;;12.49;81.76;97156.88;4986355;28;20206;-71
2023/10/31 02:41:29;;;;;;;17.53;8.77;;;;;;;12.50;82.37;97164.56;4968600;28;20271;-69
2023/10/31 02:43:57;;;;;;;11.23;8.17;;;;;;;12.53;82.20;97156.59;4987555;28;20629;-69
2023/10/31 02:46:24;;;;;;;11.00;7.20;;;;;;;12.57;82.32;97158.13;4986718;28;20187;-68
2023/10/31 02:48:52;;;;;;;12.27;7.77;;;;;;;12.49;82.26;97149.88;4969571;28;20190;-69
2023/10/31 02:51:19;;;;;;;11.37;7.70;;;;;;;12.52;82.19;97161.88;4988047;28;20313;-72
2023/10/31 02:53:47;;;;;;;9.43;7.80;;;;;;;12.49;81.90;97151.66;4968780;28;20196;-68
2023/10/31 02:56:14;;;;;;;11.87;8.00;;;;;;;12.41;81.70;97156.38;4966867;28;20276;-69
2023/10/31 02:58:43;;;;;;;9.17;7.20;;;;;;;12.49;81.77;97167.25;4966664;28;20233;-70
2023/10/31 03:01:10;;;;;;;9.57;7.63;;;;;;;12.32;82.40;97165.50;4966857;28;20686;-71
2023/10/31 03:03:37;;;;;;;20.23;11.47;;;;;;;12.30;82.64;97159.56;4949810;28;20578;-69
2023/10/31 03:06:05;;;;;;;13.97;8.00;;;;;;;12.36;82.16;97161.84;4966262;28;20827;-69
2023/10/31 03:08:32;;;;;;;13.57;7.27;;;;;;;12.21;83.06;97165.22;4950607;28;20589;-68
2023/10/31 03:10:59;;;;;;;12.07;6.50;;;;;;;11.90;83.56;97131.31;4965373;28;20612;-70
2023/10/31 03:13:27;;;;;;;12.40;7.60;;;;;;;12.22;83.03;97151.28;4950980;28;20693;-68
2023/10/31 03:15:54;;;;;;;10.67;6.93;;;;;;;12.31;82.45;97157.78;4966468;28;20231;-70
2023/10/31 03:18:23;;;;;;;9.00;7.03;;;;;;;12.06;82.98;97121.84;4966871;28;20271;-71
2023/10/31 03:20:50;;;;;;;8.90;6.80;;;;;;;12.22;82.47;97159.94;4966830;28;20238;-68
2023/10/31 03:23:19;;;;;;;10.90;6.93;;;;;;;12.32;82.27;97160.31;4966173;28;20207;-70
2023/10/31 03:25:46;;;;;;;11.40;7.10;;;;;;;12.37;81.72;97134.94;4966605;28;20205;-68
2023/10/31 03:28:19;;;;;;;8.23;6.70;;;;;;;12.54;81.18;97150.50;4965293;28;20715;-68
2023/10/31 03:30:47;;;;;;;12.00;7.33;;;;;;;12.57;81.76;97142.53;4967963;28;20191;-68
2023/10/31 03:33:18;;;;;;;13.40;7.57;;;;;;;12.74;80.71;97154.66;4952525;28;20580;-68
2023/10/31 03:35:46;;;;;;;12.37;7.60;;;;;;;12.71;80.62;97139.25;4969866;28;20231;-71
2023/10/31 03:38:13;;;;;;;11.83;7.53;;;;;;;12.94;79.37;97146.66;4968658;28;20217;-69
2023/10/31 03:40:41;;;;;;;9.90;7.57;;;;;;;12.79;79.00;97109.34;4971070;28;20222;-68
2023/10/31 03:43:12;;;;;;;10.30;6.97;;;;;;;13.08;78.42;97129.41;4971189;28;20607;-66
2023/10/31 03:45:40;;;;;;;10.37;7.40;;;;;;;13.07;77.44;97132.94;4952637;28;20610;-67
2023/10/31 03:48:07;;;;;;;9.43;7.20;;;;;;;13.06;77.72;97136.44;4968897;28;20206;-68
2023/10/31 03:50:35;;;;;;;15.67;9.03;;;;;;;13.08;77.89;97137.22;4969990;28;20299;-70
2023/10/31 03:53:02;;;;;;;16.40;8.63;;;;;;;13.16;77.47;97135.97;4953930;28;20630;-68
2023/10/31 03:55:32;;;;;;;10.97;7.73;;;;;;;12.88;76.84;97119.22;4952153;28;20234;-69
2023/10/31 03:58:00;;;;;;;11.07;7.80;;;;;;;12.53;75.68;97099.47;4969503;28;20188;-72
2023/10/31 04:00:27;;;;;;;12.80;7.33;;;;;;;12.25;76.56;97144.22;4970761;28;20193;-69
2023/10/31 04:02:57;;;;;;;11.17;7.80;;;;;;;11.96;77.68;97110.22;4984519;28;20245;-68
2023/10/31 04:05:24;;;;;;;11.43;7.47;;;;;;;11.93;77.94;97131.16;4969531;28;20751;-68
2023/10/31 04:07:55;;;;;;;16.23;8.40;;;;;;;11.99;78.18;97141.25;4968156;28;20204;-69
2023/10/31 04:10:23;;;;;;;14.43;8.53;;;;;;;11.78;79.78;97139.69;4969732;28;20190;-68
2023/10/31 04:12:50;;;;;;;13.53;8.47;;;;;;;11.63;81.55;97132.63;4952182;28;20885;-69
2023/10/31 04:15:18;;;;;;;11.20;8.83;;;;;;;11.80;81.78;97135.28;4970210;28;20275;-69
2023/10/31 04:17:45;;;;;;;18.30;8.20;;;;;;;11.80;81.50;97125.75;4968678;28;20203;-68
2023/10/31 04:20:14;;;;;;;13.40;8.30;;;;;;;11.78;79.92;97101.63;4950237;28;20290;-70
2023/10/31 04:22:44;;;;;;;18.23;8.83;;;;;;;11.88;80.61;97114.97;4951229;28;20232;-69
2023/10/31 04:25:11;;;;;;;15.57;9.27;;;;;;;11.74;82.03;97139.00;4948322;29;20863;-72
2023/10/31 04:27:38;;;;;;;11.83;8.97;;;;;;;11.53;84.13;97131.38;4951199;28;20265;-69
2023/10/31 04:30:06;;;;;;;15.70;9.40;;;;;;;11.01;84.30;97065.59;4949779;28;20200;-71
2023/10/31 04:32:33;;;;;;;17.93;9.73;;;;;;;11.62;82.83;97130.94;4954097;28;20189;-69
2023/10/31 04:35:02;;;;;;;12.37;8.00;;;;;;;11.75;82.47;97138.09;4952423;28;20256;-69
2023/10/31 04:37:30;;;;;;;13.57;8.70;;;;;;;11.81;81.57;97137.78;4967368;28;20220;-69
2023/10/31 04:40:01;;;;;;;12.43;7.87;;;;;;;11.67;81.88;97119.47;4970180;28;20206;-69
2023/10/31 04:42:33;;;;;;;11.43;8.57;;;;;;;11.72;81.30;97125.28;4967723;28;20200;-69
2023/10/31 04:45:01;;;;;;;11.53;7.77;;;;;;;11.50;81.79;97134.13;4969611;28;20205;-70
2023/10/31 04:47:32;;;;;;;12.60;7.87;;;;;;;11.37;82.76;97141.66;4968678;28;20224;-76
2023/10/31 04:50:02;;;;;;;14.30;8.57;;;;;;;11.15;84.81;97126.25;4970035;28;20196;-78
2023/10/31 04:52:34;;;;;;;16.53;9.93;;;;;;;10.58;86.80;97071.94;4951928;28;20218;-76
2023/10/31 04:55:02;;;;;;;15.70;10.00;;;;;;;10.95;87.30;97131.53;4968960;28;20321;-69
2023/10/31 04:57:30;;;;;;;13.47;8.63;;;;;;;11.01;86.89;97133.81;4983086;28;20298;-69
2023/10/31 05:00:05;;;;;;;18.27;10.30;;;;;;;11.07;87.25;97130.94;4964299;28;20208;-70
2023/10/31 05:02:32;;;;;;;21.33;9.67;;;;;;;11.10;86.34;97138.59;4989142;28;20195;-69
2023/10/31 05:05:02;;;;;;;17.43;10.33;;;;;;;11.04;87.14;97144.06;4987811;28;20187;-69
2023/10/31 05:07:39;;;;;;;19.00;9.90;;;;;;;10.93;87.40;97141.13;4988612;28;20296;-75
2023/10/31 05:10:14;;;;;;;11.60;8.80;;;;;;;11.02;86.51;97113.94;4958685;28;20284;-68
2023/10/31 05:12:42;;;;;;;13.53;8.87;;;;;;;11.27;86.20;97130.84;4987649;28;20218;-71
2023/10/31 05:15:09;;;;;;;14.00;8.37;;;;;;;11.28;86.61;97139.47;4988272;28;20216;-68
2023/10/31 05:17:36;;;;;;;10.53;8.03;;;;;;;11.37;85.92;97124.31;4987568;28;20609;-67
2023/10/31 05:20:04;;;;;;;11.20;8.00;;;;;;;11.20;85.79;97111.34;4971776;28;20227;-71
2023/10/31 05:22:32;;;;;;;16.47;9.17;;;;;;;11.40;86.45;97131.97;4969781;28;20279;-69
2023/10/31 05:24:59;;;;;;;9.50;7.83;;;;;;;11.51;86.06;97136.66;4971214;28;20197;-69
2023/10/31 05:27:29;;;;;;;11.07;7.30;;;;;;;11.69;84.97;97132.34;4987573;28;20194;-68
2023/10/31 05:30:00;;;;;;;10.63;8.13;;;;;;;11.78;84.94;97121.53;4954625;28;20205;-69
2023/10/31 05:32:30;;;;;;;11.13;6.83;;;;;;;11.85;84.51;97133.31;4988605;28;20196;-69
2023/10/31 05:34:58;;;;;;;12.03;7.33;;;;;;;11.84;85.20;97126.41;4987006;28;20874;-72
2023/10/31 05:37:26;;;;;;;14.40;7.60;;;;;;;11.98;83.90;97118.78;4954867;28;20696;-68
2023/10/31 05:39:55;;;;;;;13.30;8.43;;;;;;;12.16;83.66;97125.63;4986944;28;20309;-72
2023/10/31 05:42:24;;;;;;;11.47;7.43;;;;;;;12.06;83.20;97101.06;4971108;28;20181;-68
2023/10/31 05:44:54;;;;;;;11.00;8.30;;;;;;;12.28;82.47;97119.84;4987023;28;20874;-69
2023/10/31 05:47:21;;;;;;;11.03;7.57;;;;;;;12.31;81.66;97122.28;4987485;28;20263;-68
2023/10/31 05:49:49;;;;;;;11.23;7.20;;;;;;;12.40;82.24;97111.41;4970906;28;20195;-69
2023/10/31 05:52:16;;;;;;;15.77;8.80;;;;;;;12.79;80.28;97135.31;4968940;28;20193;-70
2023/10/31 05:54:44;;;;;;;14.80;9.20;;;;;;;13.06;80.25;97153.84;4970196;28;20221;-68
2023/10/31 05:57:11;;;;;;;16.90;8.80;;;;;;;13.20;79.19;97140.06;4985938;28;20258;-67
2023/10/31 05:59:38;;;;;;;19.27;9.27;;;;;;;13.30;78.24;97117.84;4970629;28;20201;-70
2023/10/31 06:02:05;;;;;;;16.13;9.07;;;;;;;13.51;78.14;97129.66;4968835;28;20226;-68
2023/10/31 06:04:33;;;;;;;15.03;8.63;;;;;;;13.63;77.37;97134.16;4969708;28;20204;-70
2023/10/31 06:07:00;;;;;;;13.50;9.17;;;;;;;13.80;76.88;97147.94;4953129;28;20214;-70
2023/10/31 06:09:27;;;;;;;23.57;11.33;;;;;;;13.67;77.50;97135.69;4968933;28;20681;-69
2023/10/31 06:11:54;;;;;;;23.27;10.27;;;;;;;13.72;76.91;97123.25;4987762;28;20658;-68
2023/10/31 06:14:22;;;;;;;15.80;8.73;;;;;;;13.60;76.99;97124.78;4968702;28;20292;-68
2023/10/31 06:16:59;;;;;;;16.60;9.80;;;;;;;13.81;76.36;97133.97;4987713;28;20194;-69
2023/10/31 06:19:28;;;;;;;15.07;9.60;;;;;;;13.89;76.19;97126.56;4985932;28;20202;-70
2023/10/31 06:21:57;;;;;;;19.87;10.43;;;;;;;14.04;75.65;97087.53;4987141;28;20588;-71
2023/10/31 06:24:25;;;;;;;18.80;10.27;;;;;;;14.56;74.84;97159.13;4987569;28;20205;-70
2023/10/31 06:26:53;;;;;;;15.60;10.17;;;;;;;14.38;74.73;97126.34;4969076;28;20611;-70
2023/10/31 06:29:20;;;;;;;13.93;9.50;;;;;;;14.47;74.35;97144.88;4987599;28;20216;-74
2023/10/31 06:32:07;;;;;;;15.40;10.07;;;;;;;14.49;73.78;97100.47;4968260;28;20671;-69
2023/10/31 06:34:35;;;;;;;20.83;11.10;;;;;;;14.60;73.95;97113.69;4969831;28;20275;-71
2023/10/31 06:37:03;;;;;;;15.50;9.83;;;;;;;14.85;72.85;97149.53;4986726;28;20196;-69
2023/10/31 06:39:31;;;;;;;14.77;8.90;;;;;;;14.69;73.03;97145.25;4953056;28;20295;-69
2023/10/31 06:41:58;;;;;;;13.43;8.83;;;;;;;14.79;73.35;97152.53;4987418;28;20616;-73
2023/10/31 06:44:26;;;;;;;15.87;9.50;;;;;;;14.78;73.54;97141.25;4967956;28;20210;-70
2023/10/31 06:46:54;;;;;;;13.87;8.80;;;;;;;14.64;74.38;97134.28;4987343;28;20232;-72
2023/10/31 06:49:22;;;;;;;18.30;10.13;;;;;;;14.92;74.24;97150.84;4967710;28;20200;-69
2023/10/31 06:51:50;;;;;;;15.77;10.20;;;;;;;14.77;74.45;97138.75;4987444;28;20635;-70
2023/10/31 06:54:17;;;;;;;16.47;9.40;;;;;;;15.01;74.22;97137.25;4968394;28;20206;-69
2023/10/31 06:56:45;;;;;;;13.43;8.70;;;;;;;14.93;75.45;97148.16;4986511;28;20246;-68
2023/10/31 06:59:12;;;;;;;16.23;9.10;;;;;;;14.83;75.23;97126.19;4968958;28;20295;-68
2023/10/31 07:01:40;;;;;;;11.20;8.30;;;;;;;14.94;76.12;97143.78;4968357;28;20191;-71
2023/10/31 07:04:08;;;;;;;10.23;7.80;;;;;;;14.81;75.76;97112.41;4953798;28;20198;-71
2023/10/31 07:06:35;;;;;;;11.37;8.33;;;;;;;14.91;75.61;97102.22;4985964;28;20207;-68
2023/10/31 07:09:05;;;;;;;13.00;8.27;;;;;;;15.23;75.53;97153.22;4957328;28;20308;-71
2023/10/31 07:11:35;;;;;;;11.97;8.27;;;;;;;15.22;75.17;97133.31;4971353;28;20212;-69
2023/10/31 07:14:03;;;;;;;12.43;7.87;;;;;;;15.52;74.60;97144.44;4990724;28;20215;-70
2023/10/31 07:16:32;;;;;;;10.03;7.13;;;;;;;15.55;73.88;97149.47;4972555;28;20242;-69
2023/10/31 07:19:00;;;;;;;10.73;7.40;;;;;;;15.64;73.94;97156.69;4955644;28;20196;-71
2023/10/31 07:21:27;;;;;;;11.07;7.53;;;;;;;15.60;74.29;97139.56;4957596;28;20196;-69
2023/10/31 07:23:55;;;;;;;21.03;9.87;;;;;;;15.79;73.75;97144.44;4971230;28;20247;-68
2023/10/31 07:26:23;;;;;;;18.70;10.30;;;;;;;15.76;73.56;97135.06;4972953;28;20188;-72
2023/10/31 07:28:50;;;;;;;13.93;8.63;;;;;;;15.73;73.76;97118.72;4974923;28;20192;-70
2023/10/31 07:31:18;;;;;;;18.10;8.70;;;;;;;15.73;73.48;97114.34;4990183;28;20192;-69
2023/10/31 07:33:46;;;;;;;13.93;8.50;;;;;;;16.01;73.11;97124.66;4962882;28;20203;-69
2023/10/31 07:36:14;;;;;;;13.47;9.23;;;;;;;15.91;73.14;97118.38;4978578;28;20215;-73
2023/10/31 07:38:43;;;;;;;13.53;9.00;;;;;;;16.35;72.28;97127.63;4980683;28;20266;-70
2023/10/31 07:41:11;;;;;;;15.73;9.40;;;;;;;16.50;70.80;97095.28;4977667;28;20188;-70
2023/10/31 07:43:38;;;;;;;14.20;10.37;;;;;;;16.75;70.63;97126.66;4979028;28;20209;-69
2023/10/31 07:46:06;;;;;;;15.40;10.67;;;;;;;16.82;70.34;97130.50;4960432;28;20402;-71
2023/10/31 07:48:33;;;;;;;14.83;10.00;;;;;;;16.55;69.80;97072.28;4977881;28;20203;-73
2023/10/31 07:51:01;;;;;;;12.53;9.00;;;;;;;17.00;69.38;97132.69;4989858;28;20192;-73
2023/10/31 07:53:28;;;;;;;17.43;11.73;;;;;;;17.06;69.18;97102.66;4990586;28;20697;-69
2023/10/31 07:55:56;;;;;;;15.23;10.43;;;;;;;17.28;69.30;97110.66;4958595;28;20616;-69
2023/10/31 07:58:23;;;;;;;16.90;10.53;;;;;;;17.43;67.94;97119.19;4973122;28;20204;-71
2023/10/31 08:00:50;;;;;;;14.37;9.40;;;;;;;17.42;67.50;97102.63;4991971;28;20191;-70
2023/10/31 08:03:19;;;;;;;15.53;11.17;;;;;;;17.48;67.51;97102.19;4989778;28;20218;-70
2023/10/31 08:05:47;;;;;;;16.27;10.03;;;;;;;17.65;66.63;97087.91;4972812;28;20655;-70
2023/10/31 08:08:14;;;;;;;11.13;8.57;;;;;;;17.88;66.24;97106.25;4955497;28;20201;-72
2023/10/31 08:10:43;;;;;;;12.43;8.27;;;;;;;17.59;66.90;97078.72;4988406;28;20261;-68
2023/10/31 08:13:11;;;;;;;14.87;7.70;;;;;;;17.37;67.57;97089.03;4956773;28;20201;-69
2023/10/31 08:15:42;;;;;;;21.70;8.63;;;;;;;17.57;66.63;97079.78;4955298;28;20264;-69
2023/10/31 08:18:10;;;;;;;13.67;8.90;;;;;;;17.91;67.09;97088.63;4987506;28;20260;-69
2023/10/31 08:20:38;;;;;;;15.47;8.13;;;;;;;18.00;66.20;97082.69;4970670;28;20196;-68
2023/10/31 08:23:05;;;;;;;15.93;8.23;;;;;;;18.17;66.37;97093.59;4971878;28;20189;-69
2023/10/31 08:25:32;;;;;;;16.33;9.47;;;;;;;18.25;65.85;97061.53;4986198;28;20202;-69
2023/10/31 08:28:00;;;;;;;13.30;8.77;;;;;;;18.66;64.41;97099.44;4988816;28;20222;-71
2023/10/31 08:30:28;;;;;;;11.23;8.27;;;;;;;18.13;64.97;97068.56;4988509;28;20265;-70
2023/10/31 08:32:55;;;;;;;25.17;9.47;;;;;;;18.33;65.08;97081.00;4970263;28;20203;-73
2023/10/31 08:35:26;;;;;;;14.67;9.00;;;;;;;18.24;65.70;97093.94;4989542;28;20272;-69
2023/10/31 08:37:54;;;;;;;19.97;9.27;;;;;;;18.26;64.86;97047.50;4985484;28;20784;-70
2023/10/31 08:40:22;;;;;;;15.63;8.23;;;;;;;18.43;65.01;97081.13;4987466;28;20599;-69
2023/10/31 08:42:50;;;;;;;21.10;7.73;;;;;;;18.56;64.39;97064.38;4970283;28;20207;-69
2023/10/31 08:45:18;;;;;;;20.60;8.23;;;;;;;18.82;63.72;97070.19;4987380;28;20199;-68
2023/10/31 08:47:50;;;;;;;19.50;7.33;;;;;;;18.81;63.64;97058.06;4970489;28;20317;-68
2023/10/31 08:50:18;;;;;;;13.60;7.93;;;;;;;18.82;63.90;97062.31;4986033;28;20202;-69
2023/10/31 08:52:46;;;;;;;16.13;7.27;;;;;;;18.91;63.33;97045.03;4987436;28;20203;-71
2023/10/31 08:55:14;;;;;;;15.13;7.77;;;;;;;18.82;63.35;97054.47;4968957;28;20260;-70
2023/10/31 08:57:41;;;;;;;12.27;7.23;;;;;;;18.63;64.19;97027.97;4988317;28;20227;-74
2023/10/31 09:00:08;;;;;;;9.17;6.07;;;;;;;19.00;63.33;97028.56;4985407;28;20187;-69
2023/10/31 09:02:37;;;;;;;12.77;7.17;;;;;;;19.25;62.70;97034.34;4988751;28;20195;-71
2023/10/31 09:05:05;;;;;;;11.60;6.43;;;;;;;19.38;62.56;97036.84;4986195;28;20598;-69
2023/10/31 09:07:33;;;;;;;14.50;10.40;;;;;;;19.62;61.99;97026.97;4986200;28;20217;-72
2023/10/31 09:10:01;;;;;;;12.33;7.37;;;;;;;19.24;62.78;97013.47;4988740;28;20195;-69
2023/10/31 09:12:30;;;;;;;12.53;7.20;;;;;;;19.57;60.93;97015.19;4969617;28;20306;-70
2023/10/31 09:15:00;;;;;;;12.03;7.47;;;;;;;19.04;62.80;96978.31;4986752;28;20290;-69
2023/10/31 09:17:32;;;;;;;14.47;7.23;;;;;;;19.36;61.71;96971.31;4984742;28;20224;-70
2023/10/31 09:19:59;;;;;;;11.93;7.60;;;;;;;19.46;61.36;96947.75;4970141;28;20639;-70
2023/10/31 09:22:27;;;;;;;18.77;7.23;;;;;;;19.62;61.58;96968.34;4986823;28;20687;-69
2023/10/31 09:24:56;;;;;;;11.37;6.87;;;;;;;19.77;60.70;96977.56;4985893;28;20219;-72
2023/10/31 09:27:23;;;;;;;11.40;7.20;;;;;;;20.03;60.28;96974.41;5002909;28;20210;-71
2023/10/31 09:29:51;;;;;;;13.13;6.93;;;;;;;19.69;61.12;96965.06;4985646;28;20609;-72
2023/10/31 09:32:19;;;;;;;11.80;7.00;;;;;;;20.00;60.92;96969.44;4970291;28;20286;-73
2023/10/31 09:34:46;;;;;;;8.53;7.20;;;;;;;20.14;60.22;96965.63;4986181;28;20196;-70
2023/10/31 09:37:15;;;;;;;9.90;5.53;;;;;;;20.06;60.59;96973.34;4986610;28;20252;-71
2023/10/31 09:39:42;;;;;;;12.40;7.10;;;;;;;20.15;60.59;96956.78;4985177;28;20694;-69
2023/10/31 09:42:09;;;;;;;9.87;6.20;;;;;;;20.39;59.84;96965.22;4987097;28;20219;-72
2023/10/31 09:44:36;;;;;;;10.37;6.37;;;;;;;20.57;58.93;96955.75;4988225;28;20196;-72
2023/10/31 09:47:05;;;;;;;12.73;5.83;;;;;;;20.76;58.00;96957.59;4984698;28;20647;-75
2023/10/31 09:49:34;;;;;;;11.63;6.07;;;;;;;20.68;58.68;96955.66;4987774;28;20219;-69
2023/10/31 09:52:03;;;;;;;9.57;5.90;;;;;;;20.46;58.60;96955.03;4984595;28;20192;-71
2023/10/31 09:54:31;;;;;;;9.77;5.80;;;;;;;20.71;58.22;96950.09;4987497;28;20813;-70
2023/10/31 09:56:59;;;;;;;10.67;5.57;;;;;;;20.65;58.43;96937.47;4986266;28;20633;-70
2023/10/31 09:59:28;;;;;;;9.33;5.87;;;;;;;20.77;57.70;96927.69;4986943;28;20657;-77
2023/10/31 10:01:56;;;;;;;15.10;10.50;;;;;;;21.10;57.01;96916.84;4985648;28;20694;-71
2023/10/31 10:04:23;;;;;;;8.17;5.17;;;;;;;20.95;56.98;96921.63;4968317;28;20223;-72
2023/10/31 10:07:01;;;;;;;9.40;5.27;;;;;;;20.93;56.59;96928.00;4985658;28;20266;-72
2023/10/31 10:09:31;;;;;;;11.07;6.73;;;;;;;21.07;56.44;96914.47;5000469;28;20188;-70
2023/10/31 10:12:01;;;;;;;10.03;5.90;;;;;;;21.41;55.45;96915.69;4987311;28;20242;-71
2023/10/31 10:14:31;;;;;;;10.37;5.90;;;;;;;21.40;54.82;96905.31;4986470;28;20244;-74
2023/10/31 10:16:59;;;;;;;10.17;4.83;;;;;;;21.35;54.86;96912.81;4984866;28;20284;-70
2023/10/31 10:19:28;;;;;;;6.50;5.17;;;;;;;21.05;56.01;96908.50;4987482;28;20210;-69
2023/10/31 10:21:58;;;;;;;9.60;5.27;;;;;;;21.03;55.66;96906.00;4985696;28;20569;-70
2023/10/31 10:24:26;;;;;;;9.03;5.20;;;;;;;21.30;55.01;96893.94;4970013;28;20693;-69
2023/10/31 10:26:53;;;;;;;10.13;6.23;;;;;;;21.50;54.41;96898.22;4967816;28;20290;-71
2023/10/31 10:29:21;;;;;;;14.57;7.47;;;;;;;21.64;54.36;96877.53;4986798;28;20189;-71
2023/10/31 10:31:48;;;;;;;13.90;6.07;;;;;;;21.88;53.73;96901.63;4952942;28;20185;-70
2023/10/31 10:34:16;;;;;;;10.30;5.27;;;;;;;21.73;53.58;96875.84;4968956;28;20193;-71
2023/10/31 10:36:52;;;;;;;9.77;5.60;;;;;;;21.61;54.21;96891.00;4953627;28;20307;-71
2023/10/31 10:39:21;;;;;;;11.67;6.00;;;;;;;21.33;54.41;96877.88;4967979;28;20194;-74
2023/10/31 10:41:55;;;;;;;19.63;9.13;;;;;;;21.66;53.86;96886.13;4969053;28;20188;-68
2023/10/31 10:44:34;;;;;;;13.07;6.87;;;;;;;22.05;52.90;96873.69;4967626;28;20594;-71
2023/10/31 10:47:04;;;;;;;9.50;6.23;;;;;;;22.12;52.67;96858.97;4986233;28;20754;-69
2023/10/31 10:49:37;;;;;;;11.30;5.20;;;;;;;22.00;52.38;96856.66;4969239;28;20197;-68
2023/10/31 10:52:09;;;;;;;11.20;6.07;;;;;;;21.86;53.24;96863.22;4952569;28;20783;-69
2023/10/31 10:54:52;;;;;;;11.03;5.53;;;;;;;21.50;53.57;96827.91;4969759;28;20221;-70
2023/10/31 10:57:30;;;;;;;15.23;6.03;;;;;;;21.92;52.89;96838.09;4967947;28;20236;-69
2023/10/31 11:00:03;;;;;;;10.73;5.13;;;;;;;21.50;53.82;96827.06;4969411;28;20557;-75
2023/10/31 11:02:34;;;;;;;9.03;4.77;;;;;;;21.54;53.59;96833.72;4969667;28;20684;-70
2023/10/31 11:05:04;;;;;;;9.60;4.90;;;;;;;21.61;52.95;96826.91;4968490;28;20205;-69
2023/10/31 11:07:33;;;;;;;12.10;5.20;;;;;;;21.78;52.43;96826.97;4986725;28;20867;-73
2023/10/31 11:10:02;;;;;;;7.93;4.83;;;;;;;22.00;51.76;96822.38;4968082;28;20212;-71
2023/10/31 11:12:32;;;;;;;10.60;5.50;;;;;;;21.77;52.67;96814.78;4969199;28;20592;-72
2023/10/31 11:15:02;;;;;;;9.13;4.53;;;;;;;22.00;51.74;96807.38;4951840;28;20402;-75
2023/10/31 11:17:35;;;;;;;7.80;4.83;;;;;;;22.07;51.56;96811.06;4986351;28;20240;-75
2023/10/31 11:20:04;;;;;;;10.50;5.83;;;;;;;21.91;51.63;96795.06;4986439;28;20246;-71
2023/10/31 11:22:39;;;;;;;9.37;4.83;;;;;;;22.15;50.78;96808.56;4985327;28;20720;-70
2023/10/31 11:25:08;;;;;;;8.60;5.00;;;;;;;22.16;50.66;96810.22;4953030;28;20703;-73
2023/10/31 11:27:51;;;;;;;10.47;4.90;;;;;;;21.90;50.85;96806.59;4984768;28;20198;-70
2023/10/31 11:30:27;;;;;;;8.30;4.83;;;;;;;21.98;50.17;96801.41;4986475;28;20193;-71
2023/10/31 11:32:57;;;;;;;8.10;4.57;;;;;;;22.05;50.23;96794.56;4968411;28;20290;-73